Центральная Россия

Зональный Центр Единой Системы Организации Воздушного Движения (ЗЦ ЕС ОрВД) Екатеринбург является структурным подразделением дивизиона VATRUS сети VATSIM.

В состав ЗЦ входят РПИ Екатеринбурга и Тюмени, которые вместе покрывают воздушное пространство над территорией Уральского федерального округа Российской Федерации общей площадью более 2 млн км². Зональный центр располагается над Уральским горным хребтом от южных границ до северных морей, являясь, таким образом, соединительным звеном Европейской и Азиатской частями России.

В сети ВАТСИМ обслуживание воздушного движения над территорией ЗЦ Екатеринбург осуществляет позиция RU-WSC_FSS, позывной "Центральная Россия-Контроль", частота 134.500.

Мы в Контакте

Лого Центральная Россия
Руководство

Kirill Rudavin

Куратор
Контакты

FSS региона
Обозначение
RU-WSC_FSS
Позывной
Урал-Радар
Частота
134.500
Примечание
Top-down
Инструкторы региона
Alexander Shkut * (Senior Student)
Andrey Tonkachev * (Senior Student)
Anton Agaev (Instructor)
Dmitriy Bannov (Instructor)
Ivan Malygin * (Senior Student)
Ivan Skatov (Instructor)
Kirill Rudavin (Instructor)
Maxim Gerasimov (Instructor)
Включает в себя

РПИ Екатеринбург
РПИ Тюмень

Диспетчеры региона

Диспетчер Рейтинг Допуски *
Andrew Zolotuhin Controller USTV_CTR
Anton Agaev Instructor USSV_CTR, USTV_CTR
Anton Fedosin Controller USSV_CTR
Dmitriy Bannov Instructor USSV_CTR, USTV_CTR
Kirill Rudavin Instructor USSV_CTR, USTV_CTR
Maxim Gerasimov Instructor USSV_CTR, USTV_CTR
Maxim Khromtsov Controller USSV_CTR
Vadim Filev Controller USSV_CTR
Aleksey Garmash Student 2 USSS_GND, USSS_TWR, USCC_TWR!!!, USTR_GND, USTR_TWR, USRR_TWR
Alexander Nesterov Student USSS_GND
Alexander Pervov Student 2 USTR_R_APP*, USTR_TWR
Alexander Shkut Senior Student USSS_APP, USCC_APP, USCM_TWR, USPP_APP, USUU_TWR
Alexandr Jaschinsky Student 2 USSS_TWR*
Andrey Gridchin Controller USSS_APP
Andrey Shestakov Senior Student USUU_TWR, USPP_APP, USSS_APP, USCM_TWR, USCC_APP, USTR_R_APP
Andrey Tarasov Student 2 USSS_R_APP*
Andrey Tonkachev Senior Student USCM_TWR, USCC_APP, USPP_APP, USUU_TWR, USSS_APP
Artem Glushkov Student USTR_GND
Daniil Nevesenko Student USSS_TWR*, USSS_GND
Daniil Omelchenko Student USTR_GND
Den Starichenko Student USSS_GND
Denis Makosov Senior Student USTR_TWR
Dima Platonov Student USTR_TWR*, USTR_GND
Egor Gorelov Student USTR_GND
Egor Nosov Student USSS_GND
Eldar Aliev Student 2 USCC_TWR, USSS_APP*, USPP_TWR
Igor Shitov Student 2 USSS_TWR, USRR_TWR, USTR_TWR, USRR_R_APP*
Ivan Gorkov Student USSS_GND
Ivan Malygin Senior Student USCC_APP, USUU_TWR, USPP_APP, USSS_APP, USCM_TWR
Ivan Zhuravlev Student 2 USSS_TWR, USTR_TWR, USRR_TWR
Kirill Ardatov Student 2 USSS_TWR, USTR_TWR, USTR_R_APP*, USDD_TWR
Kirill Chermeninov Student USSS_GND
Kirill Shabunin Senior Controller USSS_APP
Konstantin Norkin Student 2 USSS_TWR, USTR_R_APP*, USTR_TWR
Maksim Tretyakov Student USSS_GND
Maxim Korobko Senior Student USSS_TWR
Nika Avdalov Student 2 USPP_TWR, USSS_TWR, USCC_TWR, USTR_TWR
Nikita Gonjarov Student 2 USTR_TWR, USHH_TWR
Stepan Seleznev Student 2 USSS_GND
Vladislav Kepkov Student 2 USCC_TWR
Vsevolod Skryabin Student 2 USSS_TWR!!!, USRR_TWR, USMM_R_APP*, USTR_TWR

Аэропорты региона

ICAO Город Название Погода
USSS Екатеринбург Кольцово USSS 121730Z 26003MPS CAVOK 17/10 Q1016 R26R/010060 R26L/010060 NOSIG RMK QFE741/0988
USHQ Белоярский Белоярский
USHB Берёзово Берёзово
USII Ижевск Ижевск
USKK Киров Киров
USRK Когалым Когалым
USUU Курган Курган
USCM Магнитогорск Магнитогорск USCM 121730Z 32005MPS 9999 NSC 16/08 Q1020 R36/090060 NOSIG RMK QFE727
USMM Надым Надым
USNN Нижневартовск Нижневартовск USNN 121730Z 16004MPS 9999 FEW030CB 18/11 Q1006 R21/0///65 NOSIG RMK QFE750
USMU Новый Уренгой Новый Уренгой
USRO Ноябрьск Ноябрьск
USHN Нягань Нягань
USPP Пермь Пермь USPP 121730Z 24005MPS CAVOK 19/13 Q1015 R21/090060 NOSIG RMK QFE750
USDA Сабетта Сабетта USDA 121730Z AUTO 22004MPS 9999 ///038/// 11/11 Q0996 RMK QFE746/0995
USDD Салехард Салехард
USHS Советский Советский
USRR Сургут Сургут USRR 121730Z 21002MPS 150V250 9999 SCT020CB 17/17 Q1005 R25/250250 TEMPO 0200 FG VV001 RMK OBST OBSC QFE748
USTR Тюмень Тюмень USTR 121730Z 25004MPS 9999 FEW053CB 18/12 Q1013 R21/CLRD65 R30/////99 NOSIG
USHU Урай Урай
USHH Ханты-Мансийск Ханты-Мансийск USHH 121730Z 25003MPS 7000 SCT041 16/15 Q1005 R24/010060 NOSIG
USCC Челябинск Челябинск USCC 121730Z 26004MPS CAVOK 17/10 Q1017 R27/000060 NOSIG RMK QFE743
USDB Бованенково Бованенково
USHI Игрим Игрим
USDP Красноселькуп Красноселькуп
USDK Мыс Каменный Мыс Каменный
USDS Тарко-Сале Тарко-Сале
USTJ Тобольск Тобольск
USDO Толька Толька
USMQ Ямбург Ямбург